sensor_id;sensor_type;location;lat;lon;timestamp;temperature;humidity
46364;DHT22;32071;49.036;9.344;2023-04-03T00:02:10;3.40;99.90
46364;DHT22;32071;49.036;9.344;2023-04-03T00:04:35;3.40;99.90
46364;DHT22;32071;49.036;9.344;2023-04-03T00:07:01;3.40;99.90
46364;DHT22;32071;49.036;9.344;2023-04-03T00:09:27;3.40;99.90
46364;DHT22;32071;49.036;9.344;2023-04-03T00:11:52;3.40;99.90
46364;DHT22;32071;49.036;9.344;2023-04-03T00:14:18;3.30;99.90
46364;DHT22;32071;49.036;9.344;2023-04-03T00:16:43;3.30;99.90
46364;DHT22;32071;49.036;9.344;2023-04-03T00:19:09;3.30;99.90
46364;DHT22;32071;49.036;9.344;2023-04-03T00:21:37;3.30;99.90
46364;DHT22;32071;49.036;9.344;2023-04-03T00:24:02;3.20;99.90
46364;DHT22;32071;49.036;9.344;2023-04-03T00:26:28;3.20;99.90
46364;DHT22;32071;49.036;9.344;2023-04-03T00:28:53;3.20;99.90
46364;DHT22;32071;49.036;9.344;2023-04-03T00:31:19;3.20;99.90
46364;DHT22;32071;49.036;9.344;2023-04-03T00:33:45;3.10;99.90
46364;DHT22;32071;49.036;9.344;2023-04-03T00:36:11;3.10;99.90
46364;DHT22;32071;49.036;9.344;2023-04-03T00:38:37;3.10;99.90
46364;DHT22;32071;49.036;9.344;2023-04-03T00:41:03;3.10;99.90
46364;DHT22;32071;49.036;9.344;2023-04-03T00:43:29;3.10;99.90
46364;DHT22;32071;49.036;9.344;2023-04-03T00:45:56;3.10;99.90
46364;DHT22;32071;49.036;9.344;2023-04-03T00:48:31;3.10;99.90
46364;DHT22;32071;49.036;9.344;2023-04-03T00:50:58;3.10;99.90
46364;DHT22;32071;49.036;9.344;2023-04-03T00:53:30;3.10;99.90
46364;DHT22;32071;49.036;9.344;2023-04-03T00:55:56;3.00;99.90
46364;DHT22;32071;49.036;9.344;2023-04-03T00:58:32;3.00;99.90
46364;DHT22;32071;49.036;9.344;2023-04-03T01:01:03;3.00;99.90
46364;DHT22;32071;49.036;9.344;2023-04-03T01:03:30;2.90;99.90
46364;DHT22;32071;49.036;9.344;2023-04-03T01:05:57;2.90;99.90
46364;DHT22;32071;49.036;9.344;2023-04-03T01:08:23;2.90;99.90
46364;DHT22;32071;49.036;9.344;2023-04-03T01:10:49;2.90;99.90
46364;DHT22;32071;49.036;9.344;2023-04-03T01:13:24;2.90;99.90
46364;DHT22;32071;49.036;9.344;2023-04-03T01:15:50;2.90;99.90
46364;DHT22;32071;49.036;9.344;2023-04-03T01:18:15;3.00;99.90
46364;DHT22;32071;49.036;9.344;2023-04-03T01:21:00;3.10;99.90
46364;DHT22;32071;49.036;9.344;2023-04-03T01:26:16;3.10;99.90
46364;DHT22;32071;49.036;9.344;2023-04-03T01:28:42;3.20;99.90
46364;DHT22;32071;49.036;9.344;2023-04-03T01:34:25;3.30;99.90
46364;DHT22;32071;49.036;9.344;2023-04-03T01:36:52;3.30;99.90
46364;DHT22;32071;49.036;9.344;2023-04-03T01:39:18;3.40;99.90
46364;DHT22;32071;49.036;9.344;2023-04-03T01:41:45;3.40;99.90
46364;DHT22;32071;49.036;9.344;2023-04-03T01:44:10;3.40;99.90
46364;DHT22;32071;49.036;9.344;2023-04-03T01:46:36;3.40;99.90
46364;DHT22;32071;49.036;9.344;2023-04-03T01:49:03;3.40;99.90
46364;DHT22;32071;49.036;9.344;2023-04-03T01:51:29;3.50;99.90
46364;DHT22;32071;49.036;9.344;2023-04-03T01:53:55;3.40;99.90
46364;DHT22;32071;49.036;9.344;2023-04-03T01:56:21;3.40;99.90
46364;DHT22;32071;49.036;9.344;2023-04-03T01:58:46;3.40;99.90
46364;DHT22;32071;49.036;9.344;2023-04-03T02:01:12;3.50;99.90
46364;DHT22;32071;49.036;9.344;2023-04-03T02:03:37;3.50;99.90
46364;DHT22;32071;49.036;9.344;2023-04-03T02:06:03;3.60;99.90
46364;DHT22;32071;49.036;9.344;2023-04-03T02:08:29;3.50;99.90
46364;DHT22;32071;49.036;9.344;2023-04-03T02:10:54;3.50;99.90
46364;DHT22;32071;49.036;9.344;2023-04-03T02:13:20;3.60;99.90
46364;DHT22;32071;49.036;9.344;2023-04-03T02:15:46;3.60;99.90
46364;DHT22;32071;49.036;9.344;2023-04-03T02:18:13;3.60;99.90
46364;DHT22;32071;49.036;9.344;2023-04-03T02:20:39;3.60;99.90
46364;DHT22;32071;49.036;9.344;2023-04-03T02:23:04;3.60;99.90
46364;DHT22;32071;49.036;9.344;2023-04-03T02:25:31;3.60;99.90
46364;DHT22;32071;49.036;9.344;2023-04-03T02:27:57;3.70;99.90
46364;DHT22;32071;49.036;9.344;2023-04-03T02:30:22;3.60;99.90
46364;DHT22;32071;49.036;9.344;2023-04-03T02:32:48;3.60;99.90
46364;DHT22;32071;49.036;9.344;2023-04-03T02:35:13;3.60;99.90
46364;DHT22;32071;49.036;9.344;2023-04-03T02:37:39;3.60;99.90
46364;DHT22;32071;49.036;9.344;2023-04-03T02:40:05;3.70;99.90
46364;DHT22;32071;49.036;9.344;2023-04-03T02:42:31;3.70;99.90
46364;DHT22;32071;49.036;9.344;2023-04-03T02:44:57;3.70;99.90
46364;DHT22;32071;49.036;9.344;2023-04-03T02:47:22;3.70;99.90
46364;DHT22;32071;49.036;9.344;2023-04-03T02:49:48;3.80;99.90
46364;DHT22;32071;49.036;9.344;2023-04-03T02:52:14;3.80;99.90
46364;DHT22;32071;49.036;9.344;2023-04-03T02:54:40;3.80;99.90
46364;DHT22;32071;49.036;9.344;2023-04-03T02:57:06;3.80;99.90
46364;DHT22;32071;49.036;9.344;2023-04-03T02:59:34;3.80;99.90
46364;DHT22;32071;49.036;9.344;2023-04-03T03:02:00;3.80;99.90
46364;DHT22;32071;49.036;9.344;2023-04-03T03:04:25;3.80;99.90
46364;DHT22;32071;49.036;9.344;2023-04-03T03:06:51;3.80;99.90
46364;DHT22;32071;49.036;9.344;2023-04-03T03:09:17;3.80;99.90
46364;DHT22;32071;49.036;9.344;2023-04-03T03:11:43;3.80;99.90
46364;DHT22;32071;49.036;9.344;2023-04-03T03:14:09;3.80;99.90
46364;DHT22;32071;49.036;9.344;2023-04-03T03:16:35;3.80;99.90
46364;DHT22;32071;49.036;9.344;2023-04-03T03:19:00;3.70;99.90
46364;DHT22;32071;49.036;9.344;2023-04-03T03:21:26;3.70;99.90
46364;DHT22;32071;49.036;9.344;2023-04-03T03:23:51;3.80;99.90
46364;DHT22;32071;49.036;9.344;2023-04-03T03:26:17;3.80;99.90
46364;DHT22;32071;49.036;9.344;2023-04-03T03:28:42;3.80;99.90
46364;DHT22;32071;49.036;9.344;2023-04-03T03:31:08;3.80;99.90
46364;DHT22;32071;49.036;9.344;2023-04-03T03:33:34;3.80;99.90
46364;DHT22;32071;49.036;9.344;2023-04-03T03:36:00;3.80;99.90
46364;DHT22;32071;49.036;9.344;2023-04-03T03:38:25;3.70;99.90
46364;DHT22;32071;49.036;9.344;2023-04-03T03:40:51;3.70;99.90
46364;DHT22;32071;49.036;9.344;2023-04-03T03:43:17;3.50;99.90
46364;DHT22;32071;49.036;9.344;2023-04-03T03:45:44;3.40;99.90
46364;DHT22;32071;49.036;9.344;2023-04-03T03:48:10;3.40;99.90
46364;DHT22;32071;49.036;9.344;2023-04-03T03:50:36;3.40;99.90
46364;DHT22;32071;49.036;9.344;2023-04-03T03:53:02;3.30;99.90
46364;DHT22;32071;49.036;9.344;2023-04-03T03:55:27;3.20;99.90
46364;DHT22;32071;49.036;9.344;2023-04-03T03:57:53;3.20;99.90
46364;DHT22;32071;49.036;9.344;2023-04-03T04:00:19;3.10;99.90
46364;DHT22;32071;49.036;9.344;2023-04-03T04:02:45;3.10;99.90
46364;DHT22;32071;49.036;9.344;2023-04-03T04:05:11;3.10;99.90
46364;DHT22;32071;49.036;9.344;2023-04-03T04:07:36;3.20;99.90
46364;DHT22;32071;49.036;9.344;2023-04-03T04:10:02;3.20;99.90
46364;DHT22;32071;49.036;9.344;2023-04-03T04:12:28;3.10;99.90
46364;DHT22;32071;49.036;9.344;2023-04-03T04:14:54;3.10;99.90
46364;DHT22;32071;49.036;9.344;2023-04-03T04:17:20;3.10;99.90
46364;DHT22;32071;49.036;9.344;2023-04-03T04:19:45;3.00;99.90
46364;DHT22;32071;49.036;9.344;2023-04-03T04:22:11;2.80;99.90
46364;DHT22;32071;49.036;9.344;2023-04-03T04:24:37;2.80;99.90
46364;DHT22;32071;49.036;9.344;2023-04-03T04:27:02;2.70;99.90
46364;DHT22;32071;49.036;9.344;2023-04-03T04:29:28;2.70;99.90
46364;DHT22;32071;49.036;9.344;2023-04-03T04:31:53;2.70;99.90
46364;DHT22;32071;49.036;9.344;2023-04-03T04:34:19;2.80;99.90
46364;DHT22;32071;49.036;9.344;2023-04-03T04:36:45;2.80;99.90
46364;DHT22;32071;49.036;9.344;2023-04-03T04:39:10;2.80;99.90
46364;DHT22;32071;49.036;9.344;2023-04-03T04:41:36;2.70;99.90
46364;DHT22;32071;49.036;9.344;2023-04-03T04:44:01;2.70;99.90
46364;DHT22;32071;49.036;9.344;2023-04-03T04:46:27;2.70;99.90
46364;DHT22;32071;49.036;9.344;2023-04-03T04:48:52;2.70;99.90
46364;DHT22;32071;49.036;9.344;2023-04-03T04:51:18;2.70;99.90
46364;DHT22;32071;49.036;9.344;2023-04-03T04:53:44;2.70;99.90
46364;DHT22;32071;49.036;9.344;2023-04-03T04:56:10;2.70;99.90
46364;DHT22;32071;49.036;9.344;2023-04-03T04:58:36;2.70;99.90
46364;DHT22;32071;49.036;9.344;2023-04-03T05:01:03;2.60;99.90
46364;DHT22;32071;49.036;9.344;2023-04-03T05:03:29;2.60;99.90
46364;DHT22;32071;49.036;9.344;2023-04-03T05:05:55;2.60;99.90
46364;DHT22;32071;49.036;9.344;2023-04-03T05:08:21;2.60;99.90
46364;DHT22;32071;49.036;9.344;2023-04-03T05:10:47;2.70;99.90
46364;DHT22;32071;49.036;9.344;2023-04-03T05:13:13;2.70;99.90
46364;DHT22;32071;49.036;9.344;2023-04-03T05:15:39;2.70;99.90
46364;DHT22;32071;49.036;9.344;2023-04-03T05:18:04;2.70;99.90
46364;DHT22;32071;49.036;9.344;2023-04-03T05:20:31;2.60;99.90
46364;DHT22;32071;49.036;9.344;2023-04-03T05:22:57;2.60;99.90
46364;DHT22;32071;49.036;9.344;2023-04-03T05:25:23;2.70;99.90
46364;DHT22;32071;49.036;9.344;2023-04-03T05:27:49;2.70;99.90
46364;DHT22;32071;49.036;9.344;2023-04-03T05:30:14;2.80;99.90
46364;DHT22;32071;49.036;9.344;2023-04-03T05:32:40;2.90;99.90
46364;DHT22;32071;49.036;9.344;2023-04-03T05:35:06;2.90;99.90
46364;DHT22;32071;49.036;9.344;2023-04-03T05:37:33;2.90;99.90
46364;DHT22;32071;49.036;9.344;2023-04-03T05:39:58;3.00;99.90
46364;DHT22;32071;49.036;9.344;2023-04-03T05:42:24;3.10;99.90
46364;DHT22;32071;49.036;9.344;2023-04-03T05:44:50;3.10;99.90
46364;DHT22;32071;49.036;9.344;2023-04-03T05:47:16;3.10;99.90
46364;DHT22;32071;49.036;9.344;2023-04-03T05:49:42;3.10;99.90
46364;DHT22;32071;49.036;9.344;2023-04-03T05:52:37;3.20;99.90
46364;DHT22;32071;49.036;9.344;2023-04-03T05:55:04;3.20;99.90
46364;DHT22;32071;49.036;9.344;2023-04-03T05:57:30;3.20;99.90
46364;DHT22;32071;49.036;9.344;2023-04-03T05:59:56;3.30;99.90
46364;DHT22;32071;49.036;9.344;2023-04-03T06:02:23;3.30;99.90
46364;DHT22;32071;49.036;9.344;2023-04-03T06:04:49;3.40;99.90
46364;DHT22;32071;49.036;9.344;2023-04-03T06:07:18;3.30;99.90
46364;DHT22;32071;49.036;9.344;2023-04-03T06:09:46;3.30;99.90
46364;DHT22;32071;49.036;9.344;2023-04-03T06:12:12;3.30;99.90
46364;DHT22;32071;49.036;9.344;2023-04-03T06:14:38;3.30;99.90
46364;DHT22;32071;49.036;9.344;2023-04-03T06:17:04;3.40;99.90
46364;DHT22;32071;49.036;9.344;2023-04-03T06:19:30;3.50;99.90
46364;DHT22;32071;49.036;9.344;2023-04-03T06:21:55;3.50;99.90
46364;DHT22;32071;49.036;9.344;2023-04-03T06:24:21;3.60;99.90
46364;DHT22;32071;49.036;9.344;2023-04-03T06:26:49;3.60;99.90
46364;DHT22;32071;49.036;9.344;2023-04-03T06:29:17;3.60;99.90
46364;DHT22;32071;49.036;9.344;2023-04-03T06:31:43;3.70;99.90
46364;DHT22;32071;49.036;9.344;2023-04-03T06:34:09;3.70;99.90
46364;DHT22;32071;49.036;9.344;2023-04-03T06:36:35;3.80;99.90
46364;DHT22;32071;49.036;9.344;2023-04-03T06:39:01;3.90;99.90
46364;DHT22;32071;49.036;9.344;2023-04-03T06:41:28;3.90;99.90
46364;DHT22;32071;49.036;9.344;2023-04-03T06:43:53;4.00;99.90
46364;DHT22;32071;49.036;9.344;2023-04-03T06:46:22;3.90;99.90
46364;DHT22;32071;49.036;9.344;2023-04-03T06:48:48;3.90;99.90
46364;DHT22;32071;49.036;9.344;2023-04-03T06:51:25;4.00;99.90
46364;DHT22;32071;49.036;9.344;2023-04-03T06:53:53;4.00;99.90
46364;DHT22;32071;49.036;9.344;2023-04-03T06:56:19;4.10;99.90
46364;DHT22;32071;49.036;9.344;2023-04-03T06:58:45;4.10;99.90
46364;DHT22;32071;49.036;9.344;2023-04-03T07:01:12;4.10;99.90
46364;DHT22;32071;49.036;9.344;2023-04-03T07:03:38;4.10;99.90
46364;DHT22;32071;49.036;9.344;2023-04-03T07:06:05;4.10;99.90
46364;DHT22;32071;49.036;9.344;2023-04-03T07:08:32;4.20;99.90
46364;DHT22;32071;49.036;9.344;2023-04-03T07:10:58;4.30;99.90
46364;DHT22;32071;49.036;9.344;2023-04-03T07:13:24;4.30;99.90
46364;DHT22;32071;49.036;9.344;2023-04-03T07:15:49;4.40;99.90
46364;DHT22;32071;49.036;9.344;2023-04-03T07:18:15;4.50;99.90
46364;DHT22;32071;49.036;9.344;2023-04-03T07:20:42;4.50;99.90
46364;DHT22;32071;49.036;9.344;2023-04-03T07:23:08;4.50;99.90
46364;DHT22;32071;49.036;9.344;2023-04-03T07:25:33;4.60;99.90
46364;DHT22;32071;49.036;9.344;2023-04-03T07:27:59;4.60;99.90
46364;DHT22;32071;49.036;9.344;2023-04-03T07:30:25;4.60;99.90
46364;DHT22;32071;49.036;9.344;2023-04-03T07:32:51;4.60;99.90
46364;DHT22;32071;49.036;9.344;2023-04-03T07:35:17;4.60;99.90
46364;DHT22;32071;49.036;9.344;2023-04-03T07:37:43;4.70;99.90
46364;DHT22;32071;49.036;9.344;2023-04-03T07:40:09;4.80;99.90
46364;DHT22;32071;49.036;9.344;2023-04-03T07:42:35;4.70;99.90
46364;DHT22;32071;49.036;9.344;2023-04-03T07:45:02;4.70;99.90
46364;DHT22;32071;49.036;9.344;2023-04-03T07:47:28;4.70;99.90
46364;DHT22;32071;49.036;9.344;2023-04-03T07:49:53;4.90;99.90
46364;DHT22;32071;49.036;9.344;2023-04-03T07:52:19;4.90;99.90
46364;DHT22;32071;49.036;9.344;2023-04-03T07:54:44;4.90;99.90
46364;DHT22;32071;49.036;9.344;2023-04-03T07:57:10;4.90;99.90
46364;DHT22;32071;49.036;9.344;2023-04-03T07:59:36;4.90;99.90
46364;DHT22;32071;49.036;9.344;2023-04-03T08:02:01;5.00;99.90
46364;DHT22;32071;49.036;9.344;2023-04-03T08:04:30;5.10;99.90
46364;DHT22;32071;49.036;9.344;2023-04-03T08:06:55;5.10;99.90
46364;DHT22;32071;49.036;9.344;2023-04-03T08:09:21;5.30;99.90
46364;DHT22;32071;49.036;9.344;2023-04-03T08:11:47;5.50;99.90
46364;DHT22;32071;49.036;9.344;2023-04-03T08:14:13;5.60;99.90
46364;DHT22;32071;49.036;9.344;2023-04-03T08:16:43;5.70;99.90
46364;DHT22;32071;49.036;9.344;2023-04-03T08:19:08;5.70;99.90
46364;DHT22;32071;49.036;9.344;2023-04-03T08:21:36;5.70;99.90
46364;DHT22;32071;49.036;9.344;2023-04-03T08:24:01;5.70;99.90
46364;DHT22;32071;49.036;9.344;2023-04-03T08:26:29;5.60;99.90
46364;DHT22;32071;49.036;9.344;2023-04-03T08:28:54;5.80;99.90
46364;DHT22;32071;49.036;9.344;2023-04-03T08:31:20;6.00;99.90
46364;DHT22;32071;49.036;9.344;2023-04-03T08:33:46;6.10;99.90
46364;DHT22;32071;49.036;9.344;2023-04-03T08:36:25;6.00;99.90
46364;DHT22;32071;49.036;9.344;2023-04-03T08:38:52;5.80;99.90
46364;DHT22;32071;49.036;9.344;2023-04-03T08:49:48;6.00;99.90
46364;DHT22;32071;49.036;9.344;2023-04-03T08:54:59;6.20;99.90
46364;DHT22;32071;49.036;9.344;2023-04-03T08:57:33;6.40;99.90
46364;DHT22;32071;49.036;9.344;2023-04-03T09:00:11;6.50;99.90
46364;DHT22;32071;49.036;9.344;2023-04-03T09:02:51;6.40;99.90
46364;DHT22;32071;49.036;9.344;2023-04-03T09:08:27;6.60;99.90
46364;DHT22;32071;49.036;9.344;2023-04-03T09:13:54;7.20;99.90
46364;DHT22;32071;49.036;9.344;2023-04-03T09:16:56;7.30;99.90
46364;DHT22;32071;49.036;9.344;2023-04-03T09:22:18;7.70;99.90
46364;DHT22;32071;49.036;9.344;2023-04-03T09:24:48;7.70;99.90
46364;DHT22;32071;49.036;9.344;2023-04-03T09:27:15;7.70;99.90
46364;DHT22;32071;49.036;9.344;2023-04-03T09:29:43;7.90;99.90
46364;DHT22;32071;49.036;9.344;2023-04-03T09:32:29;7.70;99.90
46364;DHT22;32071;49.036;9.344;2023-04-03T09:34:59;7.50;99.90
46364;DHT22;32071;49.036;9.344;2023-04-03T09:37:41;7.50;99.90
46364;DHT22;32071;49.036;9.344;2023-04-03T09:40:45;7.40;99.90
46364;DHT22;32071;49.036;9.344;2023-04-03T09:45:43;7.50;99.90
46364;DHT22;32071;49.036;9.344;2023-04-03T09:55:55;7.90;99.90
46364;DHT22;32071;49.036;9.344;2023-04-03T09:58:29;7.80;99.90
46364;DHT22;32071;49.036;9.344;2023-04-03T10:00:58;7.90;99.90
46364;DHT22;32071;49.036;9.344;2023-04-03T10:05:51;7.60;99.90
46364;DHT22;32071;49.036;9.344;2023-04-03T10:08:22;7.40;99.90
46364;DHT22;32071;49.036;9.344;2023-04-03T10:13:57;7.20;99.90
46364;DHT22;32071;49.036;9.344;2023-04-03T10:16:29;7.10;99.90
46364;DHT22;32071;49.036;9.344;2023-04-03T10:21:48;6.60;99.90
46364;DHT22;32071;49.036;9.344;2023-04-03T10:24:20;6.70;99.90
46364;DHT22;32071;49.036;9.344;2023-04-03T10:29:46;6.90;99.90
46364;DHT22;32071;49.036;9.344;2023-04-03T10:38:33;7.10;99.90
46364;DHT22;32071;49.036;9.344;2023-04-03T10:43:56;7.60;99.90
46364;DHT22;32071;49.036;9.344;2023-04-03T10:46:28;7.50;99.90
46364;DHT22;32071;49.036;9.344;2023-04-03T10:51:48;7.20;99.90
46364;DHT22;32071;49.036;9.344;2023-04-03T10:54:26;7.20;99.90
46364;DHT22;32071;49.036;9.344;2023-04-03T10:56:57;7.10;99.90
46364;DHT22;32071;49.036;9.344;2023-04-03T11:02:17;6.90;99.90
46364;DHT22;32071;49.036;9.344;2023-04-03T11:04:48;7.00;99.90
46364;DHT22;32071;49.036;9.344;2023-04-03T11:07:20;7.20;99.90
46364;DHT22;32071;49.036;9.344;2023-04-03T11:09:50;7.30;99.90
46364;DHT22;32071;49.036;9.344;2023-04-03T11:12:42;7.40;99.90
46364;DHT22;32071;49.036;9.344;2023-04-03T11:15:13;7.50;99.60
46364;DHT22;32071;49.036;9.344;2023-04-03T11:17:45;7.70;99.50
46364;DHT22;32071;49.036;9.344;2023-04-03T11:20:21;7.70;97.20
46364;DHT22;32071;49.036;9.344;2023-04-03T11:22:57;7.60;98.10
46364;DHT22;32071;49.036;9.344;2023-04-03T11:25:25;7.60;98.60
46364;DHT22;32071;49.036;9.344;2023-04-03T11:30:23;7.60;96.80
46364;DHT22;32071;49.036;9.344;2023-04-03T11:33:05;7.40;97.10
46364;DHT22;32071;49.036;9.344;2023-04-03T11:35:34;7.30;97.20
46364;DHT22;32071;49.036;9.344;2023-04-03T11:38:02;7.30;98.00
46364;DHT22;32071;49.036;9.344;2023-04-03T11:40:33;7.40;96.90
46364;DHT22;32071;49.036;9.344;2023-04-03T11:45:27;7.50;98.10
46364;DHT22;32071;49.036;9.344;2023-04-03T11:50:44;7.50;96.70
46364;DHT22;32071;49.036;9.344;2023-04-03T11:58:21;7.60;96.80
46364;DHT22;32071;49.036;9.344;2023-04-03T12:00:49;7.70;97.30
46364;DHT22;32071;49.036;9.344;2023-04-03T12:08:45;8.00;97.00
46364;DHT22;32071;49.036;9.344;2023-04-03T12:27:07;8.40;95.10
46364;DHT22;32071;49.036;9.344;2023-04-03T12:29:39;8.40;94.10
46364;DHT22;32071;49.036;9.344;2023-04-03T12:32:34;8.50;92.10
46364;DHT22;32071;49.036;9.344;2023-04-03T12:35:19;8.80;93.90
46364;DHT22;32071;49.036;9.344;2023-04-03T12:48:27;8.50;91.00
46364;DHT22;32071;49.036;9.344;2023-04-03T12:50:54;8.20;92.40
46364;DHT22;32071;49.036;9.344;2023-04-03T12:53:25;8.20;91.80
46364;DHT22;32071;49.036;9.344;2023-04-03T12:55:55;8.80;92.60
46364;DHT22;32071;49.036;9.344;2023-04-03T12:58:27;9.50;93.40
46364;DHT22;32071;49.036;9.344;2023-04-03T13:01:17;10.20;90.70
46364;DHT22;32071;49.036;9.344;2023-04-03T13:03:45;10.70;90.40
46364;DHT22;32071;49.036;9.344;2023-04-03T13:06:26;10.10;88.90
46364;DHT22;32071;49.036;9.344;2023-04-03T13:08:57;9.60;91.40
46364;DHT22;32071;49.036;9.344;2023-04-03T13:11:25;9.50;91.50
46364;DHT22;32071;49.036;9.344;2023-04-03T13:14:00;9.50;92.30
46364;DHT22;32071;49.036;9.344;2023-04-03T13:16:27;9.30;90.30
46364;DHT22;32071;49.036;9.344;2023-04-03T13:18:54;9.30;90.50
46364;DHT22;32071;49.036;9.344;2023-04-03T13:21:26;9.10;88.60
46364;DHT22;32071;49.036;9.344;2023-04-03T13:23:59;8.90;90.30
46364;DHT22;32071;49.036;9.344;2023-04-03T13:26:30;9.00;90.90
46364;DHT22;32071;49.036;9.344;2023-04-03T13:29:00;9.40;90.80
46364;DHT22;32071;49.036;9.344;2023-04-03T13:31:32;9.80;90.70
46364;DHT22;32071;49.036;9.344;2023-04-03T13:34:10;10.00;91.50
46364;DHT22;32071;49.036;9.344;2023-04-03T13:41:37;9.70;87.50
46364;DHT22;32071;49.036;9.344;2023-04-03T13:46:41;9.40;87.00
46364;DHT22;32071;49.036;9.344;2023-04-03T13:49:20;9.20;90.40
46364;DHT22;32071;49.036;9.344;2023-04-03T13:51:47;9.10;87.50
46364;DHT22;32071;49.036;9.344;2023-04-03T13:54:34;9.10;86.60
46364;DHT22;32071;49.036;9.344;2023-04-03T13:57:01;9.10;86.20
46364;DHT22;32071;49.036;9.344;2023-04-03T13:59:31;9.40;91.10
46364;DHT22;32071;49.036;9.344;2023-04-03T14:04:44;9.70;89.40
46364;DHT22;32071;49.036;9.344;2023-04-03T14:07:13;9.60;88.70
46364;DHT22;32071;49.036;9.344;2023-04-03T14:09:40;9.30;86.70
46364;DHT22;32071;49.036;9.344;2023-04-03T14:12:08;8.90;88.10
46364;DHT22;32071;49.036;9.344;2023-04-03T14:14:37;8.70;89.30
46364;DHT22;32071;49.036;9.344;2023-04-03T14:17:13;8.70;90.20
46364;DHT22;32071;49.036;9.344;2023-04-03T14:19:40;9.00;91.00
46364;DHT22;32071;49.036;9.344;2023-04-03T14:22:27;9.50;86.60
46364;DHT22;32071;49.036;9.344;2023-04-03T14:24:54;9.90;85.20
46364;DHT22;32071;49.036;9.344;2023-04-03T14:27:26;9.80;86.80
46364;DHT22;32071;49.036;9.344;2023-04-03T14:29:54;9.70;86.50
46364;DHT22;32071;49.036;9.344;2023-04-03T14:32:22;9.40;86.50
46364;DHT22;32071;49.036;9.344;2023-04-03T14:34:49;9.20;85.40
46364;DHT22;32071;49.036;9.344;2023-04-03T14:37:22;9.20;87.20
46364;DHT22;32071;49.036;9.344;2023-04-03T14:39:49;9.60;84.50
46364;DHT22;32071;49.036;9.344;2023-04-03T14:42:18;9.70;85.70
46364;DHT22;32071;49.036;9.344;2023-04-03T14:44:44;9.80;85.70
46364;DHT22;32071;49.036;9.344;2023-04-03T14:47:16;10.40;83.70
46364;DHT22;32071;49.036;9.344;2023-04-03T14:49:42;9.70;80.00
46364;DHT22;32071;49.036;9.344;2023-04-03T14:52:22;9.10;83.50
46364;DHT22;32071;49.036;9.344;2023-04-03T14:54:49;8.80;84.70
46364;DHT22;32071;49.036;9.344;2023-04-03T14:57:15;9.70;87.30
46364;DHT22;32071;49.036;9.344;2023-04-03T14:59:42;11.50;82.80
46364;DHT22;32071;49.036;9.344;2023-04-03T15:02:34;11.00;77.80
46364;DHT22;32071;49.036;9.344;2023-04-03T15:05:02;9.60;82.50
46364;DHT22;32071;49.036;9.344;2023-04-03T15:07:31;9.40;82.90
46364;DHT22;32071;49.036;9.344;2023-04-03T15:10:17;10.30;82.20
46364;DHT22;32071;49.036;9.344;2023-04-03T15:12:44;11.40;77.70
46364;DHT22;32071;49.036;9.344;2023-04-03T15:15:10;13.10;76.90
46364;DHT22;32071;49.036;9.344;2023-04-03T15:17:36;13.60;74.00
46364;DHT22;32071;49.036;9.344;2023-04-03T15:20:02;14.20;72.50
46364;DHT22;32071;49.036;9.344;2023-04-03T15:22:28;13.40;73.20
46364;DHT22;32071;49.036;9.344;2023-04-03T15:24:53;12.90;66.90
46364;DHT22;32071;49.036;9.344;2023-04-03T15:27:19;13.40;67.90
46364;DHT22;32071;49.036;9.344;2023-04-03T15:29:45;14.80;68.90
46364;DHT22;32071;49.036;9.344;2023-04-03T15:32:11;16.00;63.10
46364;DHT22;32071;49.036;9.344;2023-04-03T15:34:37;16.10;59.20
46364;DHT22;32071;49.036;9.344;2023-04-03T15:37:03;13.30;60.90
46364;DHT22;32071;49.036;9.344;2023-04-03T15:39:29;11.70;65.60
46364;DHT22;32071;49.036;9.344;2023-04-03T15:41:54;10.90;71.80
46364;DHT22;32071;49.036;9.344;2023-04-03T15:44:21;10.20;71.20
46364;DHT22;32071;49.036;9.344;2023-04-03T15:46:47;9.70;72.30
46364;DHT22;32071;49.036;9.344;2023-04-03T15:49:17;9.50;73.10
46364;DHT22;32071;49.036;9.344;2023-04-03T15:51:44;10.70;72.60
46364;DHT22;32071;49.036;9.344;2023-04-03T15:54:09;11.80;71.20
46364;DHT22;32071;49.036;9.344;2023-04-03T15:56:35;12.00;69.40
46364;DHT22;32071;49.036;9.344;2023-04-03T15:59:01;10.80;65.70
46364;DHT22;32071;49.036;9.344;2023-04-03T16:01:26;9.70;70.60
46364;DHT22;32071;49.036;9.344;2023-04-03T16:03:52;9.00;72.30
46364;DHT22;32071;49.036;9.344;2023-04-03T16:06:18;8.70;76.90
46364;DHT22;32071;49.036;9.344;2023-04-03T16:08:44;10.50;70.70
46364;DHT22;32071;49.036;9.344;2023-04-03T16:11:11;14.10;65.40
46364;DHT22;32071;49.036;9.344;2023-04-03T16:13:36;17.30;61.90
46364;DHT22;32071;49.036;9.344;2023-04-03T16:16:02;18.90;56.40
46364;DHT22;32071;49.036;9.344;2023-04-03T16:18:29;18.60;54.70
46364;DHT22;32071;49.036;9.344;2023-04-03T16:20:55;18.30;54.20
46364;DHT22;32071;49.036;9.344;2023-04-03T16:23:21;15.30;54.70
46364;DHT22;32071;49.036;9.344;2023-04-03T16:25:48;12.30;60.00
46364;DHT22;32071;49.036;9.344;2023-04-03T16:28:15;10.70;65.80
46364;DHT22;32071;49.036;9.344;2023-04-03T16:30:42;9.40;68.00
46364;DHT22;32071;49.036;9.344;2023-04-03T16:33:09;8.70;69.50
46364;DHT22;32071;49.036;9.344;2023-04-03T16:35:35;8.60;74.60
46364;DHT22;32071;49.036;9.344;2023-04-03T16:38:00;8.40;70.90
46364;DHT22;32071;49.036;9.344;2023-04-03T16:40:26;8.20;75.30
46364;DHT22;32071;49.036;9.344;2023-04-03T16:42:52;8.40;73.70
46364;DHT22;32071;49.036;9.344;2023-04-03T16:45:17;8.20;73.40
46364;DHT22;32071;49.036;9.344;2023-04-03T16:47:43;9.00;75.20
46364;DHT22;32071;49.036;9.344;2023-04-03T16:50:09;10.90;69.90
46364;DHT22;32071;49.036;9.344;2023-04-03T16:52:35;12.60;66.40
46364;DHT22;32071;49.036;9.344;2023-04-03T16:55:01;13.50;63.60
46364;DHT22;32071;49.036;9.344;2023-04-03T16:57:26;13.10;62.10
46364;DHT22;32071;49.036;9.344;2023-04-03T16:59:53;11.90;62.30
46364;DHT22;32071;49.036;9.344;2023-04-03T17:02:20;10.70;63.30
46364;DHT22;32071;49.036;9.344;2023-04-03T17:04:46;9.90;68.40
46364;DHT22;32071;49.036;9.344;2023-04-03T17:07:12;9.40;70.60
46364;DHT22;32071;49.036;9.344;2023-04-03T17:09:37;9.00;70.40
46364;DHT22;32071;49.036;9.344;2023-04-03T17:12:03;8.30;70.20
46364;DHT22;32071;49.036;9.344;2023-04-03T17:14:29;7.80;73.00
46364;DHT22;32071;49.036;9.344;2023-04-03T17:16:54;7.50;73.00
46364;DHT22;32071;49.036;9.344;2023-04-03T17:19:20;7.20;73.90
46364;DHT22;32071;49.036;9.344;2023-04-03T17:21:48;7.10;75.90
46364;DHT22;32071;49.036;9.344;2023-04-03T17:24:14;6.90;75.60
46364;DHT22;32071;49.036;9.344;2023-04-03T17:26:41;6.80;78.70
46364;DHT22;32071;49.036;9.344;2023-04-03T17:29:07;6.80;78.70
46364;DHT22;32071;49.036;9.344;2023-04-03T17:31:33;6.80;78.70
46364;DHT22;32071;49.036;9.344;2023-04-03T17:33:58;6.70;79.20
46364;DHT22;32071;49.036;9.344;2023-04-03T17:36:32;6.60;81.00
46364;DHT22;32071;49.036;9.344;2023-04-03T17:38:58;6.50;78.80
46364;DHT22;32071;49.036;9.344;2023-04-03T17:41:23;6.40;80.00
46364;DHT22;32071;49.036;9.344;2023-04-03T17:43:50;6.30;80.00
46364;DHT22;32071;49.036;9.344;2023-04-03T17:46:16;6.20;80.10
46364;DHT22;32071;49.036;9.344;2023-04-03T17:48:42;6.10;80.00